Time;durP1;ratioP1;P1;durP2;ratioP2;P2;SDS_P1;SDS_P2;PMS_P1;PMS_P2;Temp;Humidity;BMP_temperature;BMP_pressure;BME280_temperature;BME280_humidity;BME280_pressure;Samples;Min_cycle;Max_cycle;Signal;HPM_P1;HPM_P2
2021/03/28 00:00:52;;;;;;;1999.90;999.90;;;;;;;4.65;71.26;102183.50;15806930;28;20040;-61
2021/03/28 00:08:27;;;;;;;1999.90;999.90;;;;;;;4.45;72.00;102181.28;15806213;28;20396;-61
2021/03/28 00:16:07;;;;;;;1999.90;999.90;;;;;;;4.49;71.32;102181.66;15807221;28;20480;-60
2021/03/28 00:23:45;;;;;;;1999.90;999.90;;;;;;;4.39;71.60;102181.50;15787931;28;20064;-61
2021/03/28 00:31:26;;;;;;;1999.90;999.90;;;;;;;4.46;71.84;102180.22;15803299;28;20461;-62
2021/03/28 00:38:59;;;;;;;1999.90;999.90;;;;;;;4.31;71.85;102180.84;15804408;28;20048;-61
2021/03/28 00:46:43;;;;;;;1999.90;999.90;;;;;;;4.39;71.72;102184.28;15805121;28;20036;-62
2021/03/28 00:54:17;;;;;;;1999.90;999.90;;;;;;;4.17;72.10;102190.59;15804372;28;20044;-61
2021/03/28 01:02:04;;;;;;;1999.90;999.90;;;;;;;4.24;72.50;102185.72;15804141;28;20050;-61
2021/03/28 01:09:52;;;;;;;1999.90;999.90;;;;;;;4.09;73.08;102201.25;15784725;28;20122;-62
2021/03/28 01:17:30;;;;;;;1999.90;999.90;;;;;;;4.11;73.12;102204.59;15785053;28;20084;-61
2021/03/28 01:25:15;;;;;;;1999.90;999.90;;;;;;;4.07;72.60;102211.72;15767925;28;20139;-60
2021/03/28 01:32:57;;;;;;;1999.90;999.90;;;;;;;4.06;72.90;102216.38;15783384;28;20134;-61
2021/03/28 01:40:43;;;;;;;1999.90;999.90;;;;;;;4.04;73.57;102215.81;15783215;28;20040;-62
2021/03/28 01:48:37;;;;;;;1999.90;999.90;;;;;;;4.19;72.94;102213.28;15781752;28;20094;-61
2021/03/28 01:56:16;;;;;;;1999.90;999.90;;;;;;;4.14;73.11;102210.44;15782601;28;20056;-62
2021/03/28 02:04:03;;;;;;;1999.90;999.90;;;;;;;4.19;72.58;102196.72;15764484;28;20036;-62
2021/03/28 02:11:47;;;;;;;1999.90;999.90;;;;;;;4.13;72.49;102205.16;15800281;28;20048;-62
2021/03/28 02:19:22;;;;;;;1999.90;999.90;;;;;;;4.17;73.14;102211.84;15783070;28;20044;-62
2021/03/28 02:27:08;;;;;;;1999.90;999.90;;;;;;;4.11;72.85;102205.44;15802552;28;20036;-62
2021/03/28 02:34:52;;;;;;;1999.90;999.90;;;;;;;4.14;72.33;102215.13;15798426;28;20085;-62
2021/03/28 02:42:30;;;;;;;1999.90;999.90;;;;;;;4.08;72.37;102210.63;15797845;28;20068;-62
2021/03/28 02:50:22;;;;;;;1999.90;999.90;;;;;;;4.00;72.18;102222.94;15797909;28;20069;-61
2021/03/28 02:58:03;;;;;;;1999.90;999.90;;;;;;;3.82;72.45;102201.09;15755623;22;20088;-84
2021/03/28 03:15:06;;;;;;;1999.90;999.90;;;;;;;3.86;72.08;102229.91;15603684;22;20087;-70
2021/03/28 03:23:16;;;;;;;1999.90;999.90;;;;;;;3.79;72.35;102240.28;15686475;28;20102;-71
2021/03/28 03:31:17;;;;;;;1999.90;999.90;;;;;;;3.57;72.80;102254.81;15692355;28;20275;-70
2021/03/28 03:39:06;;;;;;;1999.90;999.90;;;;;;;3.67;72.39;102266.03;15699251;28;20091;-70
2021/03/28 03:46:54;;;;;;;1999.90;999.90;;;;;;;3.74;72.24;102274.97;15683889;28;20508;-70
2021/03/28 03:54:45;;;;;;;1999.90;999.90;;;;;;;3.55;72.43;102275.47;15703049;28;20045;-70
2021/03/28 04:02:24;;;;;;;1999.90;999.90;;;;;;;3.48;72.34;102278.38;15679592;28;20154;-71
2021/03/28 04:10:23;;;;;;;1999.90;999.90;;;;;;;3.45;72.42;102282.47;15694943;28;20094;-71
2021/03/28 04:18:24;;;;;;;1999.90;999.90;;;;;;;3.26;72.79;102277.41;15704785;28;20072;-70
2021/03/28 04:26:12;;;;;;;1999.90;999.90;;;;;;;3.02;73.53;102273.88;15629541;28;20077;-71
2021/03/28 04:33:49;;;;;;;1999.90;999.90;;;;;;;3.05;73.76;102277.00;15738826;28;20049;-70
2021/03/28 04:41:39;;;;;;;1999.90;999.90;;;;;;;3.19;72.94;102269.25;15716972;28;20044;-71
2021/03/28 04:49:41;;;;;;;1999.90;999.90;;;;;;;3.15;73.23;102273.63;15687403;28;20098;-72
2021/03/28 04:57:23;;;;;;;1999.90;999.90;;;;;;;3.15;73.00;102273.63;15698060;28;20068;-70
2021/03/28 05:05:23;;;;;;;1999.90;999.90;;;;;;;3.40;72.87;102276.00;15718923;28;20163;-70
2021/03/28 05:13:29;;;;;;;1999.90;999.90;;;;;;;3.37;72.26;102288.41;15717672;28;20142;-70
2021/03/28 05:21:29;;;;;;;1999.90;999.90;;;;;;;3.35;72.27;102292.50;15655012;28;20057;-71
2021/03/28 05:29:29;;;;;;;1999.90;999.90;;;;;;;3.58;71.94;102289.63;15646570;28;20052;-70
2021/03/28 05:37:35;;;;;;;1999.90;999.90;;;;;;;3.72;70.74;102287.38;15662066;28;20077;-71
2021/03/28 05:45:24;;;;;;;1999.90;999.90;;;;;;;4.25;69.76;102286.03;15664345;28;20045;-71
2021/03/28 05:53:17;;;;;;;1999.90;999.90;;;;;;;4.84;67.59;102278.03;15644831;28;20549;-71
2021/03/28 06:01:22;;;;;;;1999.90;999.90;;;;;;;5.31;66.55;102297.69;15656680;28;20432;-70
2021/03/28 06:09:43;;;;;;;1999.90;999.90;;;;;;;5.10;67.22;102291.09;15643259;28;20103;-70
2021/03/28 06:17:48;;;;;;;1999.90;999.90;;;;;;;5.11;67.93;102301.09;15646767;28;20045;-69
2021/03/28 06:25:49;;;;;;;1999.90;999.90;;;;;;;5.55;66.10;102301.03;15731909;28;20302;-70
2021/03/28 06:33:53;;;;;;;1999.90;999.90;;;;;;;6.12;64.76;102303.25;15695298;28;20559;-70
2021/03/28 06:41:40;;;;;;;1999.90;999.90;;;;;;;6.59;63.03;102306.09;15685146;28;20098;-70
2021/03/28 06:49:48;;;;;;;1999.90;999.90;;;;;;;7.38;61.20;102312.56;15679880;28;20049;-70
2021/03/28 06:57:56;;;;;;;1999.90;999.90;;;;;;;7.64;60.17;102311.53;15696375;28;20356;-69
2021/03/28 07:05:40;;;;;;;1999.90;999.90;;;;;;;8.01;59.81;102308.50;15637933;28;20053;-70
2021/03/28 07:13:33;;;;;;;1999.90;999.90;;;;;;;8.25;58.72;102308.81;15676732;28;20045;-70
2021/03/28 07:21:29;;;;;;;1999.90;999.90;;;;;;;8.68;57.51;102307.38;15619160;28;20057;-69
2021/03/28 07:29:57;;;;;;;1999.90;999.90;;;;;;;9.79;54.86;102307.97;15583746;28;20053;-70
2021/03/28 07:38:05;;;;;;;1999.90;999.90;;;;;;;10.15;53.74;102318.88;15582653;28;20165;-70
2021/03/28 07:46:04;;;;;;;1999.90;999.90;;;;;;;11.08;51.03;102320.47;15573779;28;20041;-71
2021/03/28 07:54:13;;;;;;;1999.90;999.90;;;;;;;11.49;49.80;102326.38;15621820;28;20284;-71
2021/03/28 08:02:04;;;;;;;1999.90;999.90;;;;;;;10.75;52.13;102315.84;15613043;28;20060;-70
2021/03/28 08:10:21;;;;;;;1999.90;999.90;;;;;;;11.07;51.82;102321.63;15650990;28;20049;-73
2021/03/28 08:17:54;;;;;;;1999.90;999.90;;;;;;;10.37;52.20;102318.44;15607095;28;20053;-70
2021/03/28 08:25:47;;;;;;;1999.90;999.90;;;;;;;10.72;50.99;102324.78;15712114;28;20049;-70
2021/03/28 08:34:00;;;;;;;1999.90;999.90;;;;;;;11.21;49.89;102321.72;15695694;28;20045;-70
2021/03/28 08:42:17;;;;;;;1999.90;999.90;;;;;;;11.16;49.95;102317.03;15678703;28;20132;-71
2021/03/28 08:49:58;;;;;;;1999.90;999.90;;;;;;;13.04;47.43;102318.78;15709084;28;20497;-70
2021/03/28 08:57:49;;;;;;;1999.90;999.90;;;;;;;12.97;45.66;102312.75;15690839;28;20184;-70
2021/03/28 09:05:32;;;;;;;1999.90;999.90;;;;;;;13.71;43.74;102310.59;15699493;28;20074;-70
2021/03/28 09:13:30;;;;;;;1999.90;999.90;;;;;;;13.18;44.23;102311.19;15733767;22;20105;-65
2021/03/28 09:21:20;;;;;;;1999.90;999.90;;;;;;;13.86;43.30;102296.22;15792420;28;20054;-65
2021/03/28 09:29:05;;;;;;;1999.90;999.90;;;;;;;15.01;41.62;102301.09;15844339;28;20040;-65
2021/03/28 09:36:53;;;;;;;1999.90;999.90;;;;;;;14.45;40.37;102313.03;15815428;28;20119;-66
2021/03/28 09:44:37;;;;;;;1999.90;999.90;;;;;;;14.41;40.45;102312.81;15821809;28;20052;-65
2021/03/28 09:52:45;;;;;;;1999.90;999.90;;;;;;;13.89;40.44;102299.53;15844814;28;20047;-64
2021/03/28 10:00:36;;;;;;;1999.90;999.90;;;;;;;14.60;41.02;102307.00;15799041;28;20044;-64
2021/03/28 10:08:11;;;;;;;1999.90;999.90;;;;;;;14.93;40.28;102301.06;15799588;28;20043;-64
2021/03/28 10:15:54;;;;;;;1999.90;999.90;;;;;;;16.11;38.54;102299.94;15798287;28;20045;-64
2021/03/28 10:23:38;;;;;;;1999.90;999.90;;;;;;;15.47;39.37;102305.34;15869106;28;20391;-65
2021/03/28 10:31:26;;;;;;;1999.90;999.90;;;;;;;15.80;39.71;102302.09;15820674;28;20373;-64
2021/03/28 10:39:16;;;;;;;1999.90;999.90;;;;;;;16.44;38.93;102299.41;15836538;28;20044;-63
2021/03/28 10:47:14;;;;;;;1999.90;999.90;;;;;;;17.10;37.49;102284.94;15818079;28;20054;-63
2021/03/28 10:55:29;;;;;;;1999.90;999.90;;;;;;;16.45;37.69;102290.59;15793421;28;20039;-63
2021/03/28 11:03:50;;;;;;;1999.90;999.90;;;;;;;17.06;37.10;102276.31;15721765;28;20135;-64
2021/03/28 11:11:43;;;;;;;1999.90;999.90;;;;;;;18.36;35.22;102269.69;15740594;28;20358;-63
2021/03/28 11:20:04;;;;;;;1999.90;999.90;;;;;;;18.15;35.73;102258.44;15704920;28;20045;-64
2021/03/28 11:28:14;;;;;;;1999.90;999.90;;;;;;;19.15;32.69;102265.56;15739410;28;20053;-64
2021/03/28 11:36:06;;;;;;;1999.90;999.90;;;;;;;16.35;36.98;102267.59;15738926;28;20056;-64
2021/03/28 11:43:43;;;;;;;1999.90;999.90;;;;;;;18.07;35.33;102270.63;15720826;28;20500;-64
2021/03/28 11:51:26;;;;;;;1999.90;999.90;;;;;;;15.90;38.95;102245.47;15720722;28;20040;-64
2021/03/28 11:59:04;;;;;;;1999.90;999.90;;;;;;;15.17;40.10;102256.47;15738584;28;20508;-64
2021/03/28 12:06:51;;;;;;;1999.90;999.90;;;;;;;15.87;38.95;102246.16;15721020;28;20113;-63
2021/03/28 12:14:35;;;;;;;1999.90;999.90;;;;;;;15.23;41.54;102238.31;15738052;28;20128;-63
2021/03/28 12:22:14;;;;;;;1999.90;999.90;;;;;;;15.76;40.41;102248.47;15719780;28;20052;-64
2021/03/28 12:29:49;;;;;;;1999.90;999.90;;;;;;;17.03;39.32;102243.16;15719275;28;20094;-63
2021/03/28 12:37:26;;;;;;;1999.90;999.90;;;;;;;17.47;38.37;102236.06;15711524;28;20442;-64
2021/03/28 12:45:36;;;;;;;1999.90;999.90;;;;;;;16.23;40.18;102236.47;15747709;28;20048;-63
2021/03/28 12:53:15;;;;;;;1999.90;999.90;;;;;;;16.11;41.79;102232.34;15733658;28;20052;-63
2021/03/28 13:00:56;;;;;;;1999.90;999.90;;;;;;;18.79;38.40;102203.34;15746098;28;20481;-64
2021/03/28 13:08:30;;;;;;;1999.90;999.90;;;;;;;17.14;39.82;102204.09;15746561;28;20397;-64
2021/03/28 13:16:02;;;;;;;1999.90;999.90;;;;;;;16.59;41.81;102203.06;15745879;28;20381;-64
2021/03/28 13:23:36;;;;;;;1999.90;999.90;;;;;;;15.09;44.55;102197.41;15710955;28;20067;-64
2021/03/28 13:31:39;;;;;;;1999.90;999.90;;;;;;;14.52;46.01;102203.03;15745897;28;20127;-63
2021/03/28 13:39:18;;;;;;;1999.90;999.90;;;;;;;14.02;47.53;102195.63;15711884;28;20127;-64
2021/03/28 13:46:53;;;;;;;1999.90;999.90;;;;;;;14.10;47.29;102200.47;15728111;28;20547;-64
2021/03/28 13:54:27;;;;;;;1999.90;999.90;;;;;;;14.25;47.50;102204.84;15726668;28;20067;-64
2021/03/28 14:02:21;;;;;;;1999.90;999.90;;;;;;;14.38;47.25;102181.47;15725595;28;20049;-64
2021/03/28 14:10:07;;;;;;;1999.90;999.90;;;;;;;14.44;46.77;102179.34;15742969;28;20044;-64
2021/03/28 14:17:38;;;;;;;1999.90;999.90;;;;;;;14.23;47.74;102176.25;15724776;28;20496;-64
2021/03/28 14:25:15;;;;;;;1999.90;999.90;;;;;;;14.68;47.23;102173.31;15741745;28;20455;-63
2021/03/28 14:32:53;;;;;;;1999.90;999.90;;;;;;;14.44;47.10;102173.72;15742160;28;20127;-64
2021/03/28 14:40:54;;;;;;;1999.90;999.90;;;;;;;14.75;46.14;102168.06;15741747;28;20420;-63
2021/03/28 14:48:43;;;;;;;1999.90;999.90;;;;;;;14.51;46.38;102164.88;15705350;28;20037;-64
2021/03/28 14:56:25;;;;;;;1999.90;999.90;;;;;;;14.27;46.73;102157.59;15722325;28;20068;-65
2021/03/28 15:04:09;;;;;;;1999.90;999.90;;;;;;;14.28;46.41;102162.09;15741634;28;20048;-65
2021/03/28 15:11:45;;;;;;;;;;;;;;;14.19;46.35;102157.59;15739575;28;20079;-64
2021/03/28 15:19:23;;;;;;;1999.90;999.90;;;;;;;14.53;45.47;102154.13;15740125;28;19931;-63
2021/03/28 15:27:15;;;;;;;1999.90;999.90;;;;;;;14.53;45.63;102142.88;15740454;28;20060;-63
2021/03/28 15:34:56;;;;;;;1999.90;999.90;;;;;;;14.75;45.03;102139.16;15722767;28;20048;-65
2021/03/28 15:42:36;;;;;;;1999.90;999.90;;;;;;;14.22;46.41;102149.34;15705597;28;20033;-64
2021/03/28 15:50:27;;;;;;;1999.90;999.90;;;;;;;14.56;45.92;102133.81;15721478;28;20037;-63
2021/03/28 15:58:22;;;;;;;1999.90;999.90;;;;;;;14.36;46.05;102138.00;15721600;28;20099;-64
2021/03/28 16:06:12;;;;;;;1999.90;999.90;;;;;;;14.30;46.25;102128.91;15739355;28;20131;-64
2021/03/28 16:14:02;;;;;;;1999.90;999.90;;;;;;;14.43;45.99;102129.94;15732540;28;20074;-64
2021/03/28 16:22:14;;;;;;;1999.90;999.90;;;;;;;14.36;45.83;102121.97;15731323;28;20060;-64
2021/03/28 16:30:06;;;;;;;1999.90;999.90;;;;;;;14.51;45.78;102106.69;15746818;28;20420;-65
2021/03/28 16:37:47;;;;;;;1999.90;999.90;;;;;;;14.28;45.24;102111.56;15730663;28;20492;-64
2021/03/28 16:45:35;;;;;;;1999.90;999.90;;;;;;;14.06;45.93;102115.22;15729987;28;20100;-64
2021/03/28 16:53:30;;;;;;;1999.90;999.90;;;;;;;14.08;46.20;102101.72;15748499;28;20039;-64
2021/03/28 17:01:38;;;;;;;1999.90;999.90;;;;;;;13.92;46.51;102113.69;15729130;28;20048;-66
2021/03/28 17:09:17;;;;;;;1999.90;999.90;;;;;;;13.94;46.88;102114.19;15715979;28;20048;-64
2021/03/28 17:16:49;;;;;;;1999.90;999.90;;;;;;;13.95;47.12;102124.25;15746386;28;20051;-64
2021/03/28 17:24:35;;;;;;;1999.90;999.90;;;;;;;14.04;47.47;102125.13;15711382;28;20045;-66
2021/03/28 17:32:19;;;;;;;1999.90;999.90;;;;;;;14.12;48.36;102136.41;15727518;28;20508;-64
2021/03/28 17:39:53;;;;;;;1999.90;999.90;;;;;;;14.01;50.81;102135.03;15726779;28;20067;-65
2021/03/28 17:47:52;;;;;;;1999.90;999.90;;;;;;;13.83;52.97;102150.94;15744696;28;20049;-64
2021/03/28 17:55:38;;;;;;;1999.90;999.90;;;;;;;13.64;51.10;102144.69;15726831;28;20107;-65
2021/03/28 18:03:15;;;;;;;1999.90;999.90;;;;;;;13.39;51.62;102154.59;15743907;28;20052;-64
2021/03/28 18:10:52;;;;;;;1999.90;999.90;;;;;;;13.18;51.71;102167.41;15726254;28;20139;-64
2021/03/28 18:18:29;;;;;;;1999.90;999.90;;;;;;;12.93;53.18;102178.03;15742182;28;20048;-64
2021/03/28 18:26:01;;;;;;;1999.90;999.90;;;;;;;12.86;53.00;102188.84;15707555;28;20048;-65
2021/03/28 18:33:49;;;;;;;1999.90;999.90;;;;;;;12.93;53.10;102191.22;15723603;28;20493;-64
2021/03/28 18:41:25;;;;;;;1999.90;999.90;;;;;;;12.87;53.52;102178.47;15722810;28;20045;-64
2021/03/28 18:49:15;;;;;;;1999.90;999.90;;;;;;;13.01;53.61;102194.09;15723006;28;20040;-64
2021/03/28 18:56:47;;;;;;;1999.90;999.90;;;;;;;12.89;53.76;102198.59;15740632;28;20523;-65
2021/03/28 19:04:23;;;;;;;1999.90;999.90;;;;;;;12.93;53.69;102200.47;15722525;28;20044;-64
2021/03/28 19:11:57;;;;;;;1999.90;999.90;;;;;;;12.97;53.63;102203.44;15721898;28;20041;-65
2021/03/28 19:19:29;;;;;;;1999.90;999.90;;;;;;;13.01;53.79;102201.66;15705117;28;20044;-65
2021/03/28 19:27:08;;;;;;;1999.90;999.90;;;;;;;13.25;53.17;102198.66;15739697;28;20429;-64
2021/03/28 19:34:40;;;;;;;1999.90;999.90;;;;;;;13.14;53.40;102191.59;15739590;28;20187;-65
2021/03/28 19:42:23;;;;;;;1999.90;999.90;;;;;;;13.22;52.81;102190.88;15741723;28;20107;-65
2021/03/28 19:49:57;;;;;;;1999.90;999.90;;;;;;;13.21;52.92;102192.00;15733373;28;20036;-65
2021/03/28 19:57:40;;;;;;;1999.90;999.90;;;;;;;13.20;53.24;102188.38;15751101;28;20052;-63
2021/03/28 20:05:44;;;;;;;1999.90;999.90;;;;;;;13.26;53.06;102187.13;15749181;28;20052;-63
2021/03/28 20:13:22;;;;;;;1999.90;999.90;;;;;;;13.18;53.26;102182.25;15751106;28;20041;-64
2021/03/28 20:20:54;;;;;;;1999.90;999.90;;;;;;;13.20;53.28;102187.56;15734367;28;20055;-64
2021/03/28 20:28:28;;;;;;;1999.90;999.90;;;;;;;13.05;53.75;102191.50;15763837;28;20045;-64
2021/03/28 20:36:02;;;;;;;1999.90;999.90;;;;;;;13.11;54.03;102195.84;15750236;28;20059;-63
2021/03/28 20:43:38;;;;;;;1999.90;999.90;;;;;;;12.94;54.33;102196.50;15735217;28;20046;-63
2021/03/28 20:51:17;;;;;;;1999.90;999.90;;;;;;;12.59;55.35;102202.84;15735742;28;20362;-64
2021/03/28 20:58:49;;;;;;;1999.90;999.90;;;;;;;12.37;58.13;102201.59;15745976;28;20045;-64
2021/03/28 21:06:22;;;;;;;1999.90;999.90;;;;;;;12.66;58.14;102214.47;15747220;28;20048;-64
2021/03/28 21:13:57;;;;;;;1999.90;999.90;;;;;;;12.71;57.63;102217.16;15728793;28;20487;-64
2021/03/28 21:21:29;;;;;;;1999.90;999.90;;;;;;;12.75;56.38;102212.59;15730022;28;20095;-64
2021/03/28 21:29:03;;;;;;;1999.90;999.90;;;;;;;12.73;55.28;102206.50;15759947;22;20051;-82
2021/03/28 21:36:36;;;;;;;1999.90;999.90;;;;;;;12.61;55.86;102195.81;15722085;28;20389;-83
2021/03/28 21:44:09;;;;;;;1999.90;999.90;;;;;;;12.56;55.25;102186.66;15729840;22;20048;-61
2021/03/28 21:51:54;;;;;;;1999.90;999.90;;;;;;;12.56;54.48;102178.28;15738176;28;20060;-57
2021/03/28 21:59:27;;;;;;;1999.90;999.90;;;;;;;12.78;54.33;102183.13;15702907;28;20062;-60
2021/03/28 22:06:59;;;;;;;1999.90;999.90;;;;;;;12.84;54.10;102193.09;15737399;28;20127;-60
2021/03/28 22:14:31;;;;;;;1999.90;999.90;;;;;;;12.76;53.96;102196.63;15736136;28;20040;-59
2021/03/28 22:22:07;;;;;;;1999.90;999.90;;;;;;;12.84;53.77;102181.91;15717819;28;20092;-61
2021/03/28 22:29:41;;;;;;;1999.90;999.90;;;;;;;12.89;53.81;102190.19;15700852;28;20041;-60
2021/03/28 22:37:16;;;;;;;1999.90;999.90;;;;;;;12.86;53.86;102191.63;15736047;28;20588;-61
2021/03/28 22:44:52;;;;;;;1999.90;999.90;;;;;;;12.93;53.59;102208.88;15735198;28;20129;-59
2021/03/28 22:52:24;;;;;;;1999.90;999.90;;;;;;;12.86;54.03;102199.22;15716320;28;20048;-61
2021/03/28 22:59:57;;;;;;;1999.90;999.90;;;;;;;12.81;53.92;102199.31;15716320;28;20045;-58
2021/03/28 23:07:29;;;;;;;1999.90;999.90;;;;;;;12.82;53.49;102200.97;15732877;28;20055;-61
2021/03/28 23:15:05;;;;;;;1999.90;999.90;;;;;;;13.02;52.86;102206.13;15731511;28;20085;-61
2021/03/28 23:22:37;;;;;;;1999.90;999.90;;;;;;;12.99;52.79;102199.19;15733643;28;20044;-60
2021/03/28 23:30:11;;;;;;;1999.90;999.90;;;;;;;12.97;52.46;102203.44;15700820;28;20044;-59
2021/03/28 23:37:42;;;;;;;1999.90;999.90;;;;;;;12.78;53.24;102211.16;15716470;28;20044;-61
2021/03/28 23:45:19;;;;;;;1999.90;999.90;;;;;;;12.87;53.17;102209.28;15714331;28;20550;-58
2021/03/28 23:52:53;;;;;;;1999.90;999.90;;;;;;;12.71;53.25;102214.34;15733677;28;20056;-58
